FD15 weather

Tailwinds Airport
Jupiter, Florida, United States

Public forecast

Using degrees Fahrenheit for public forecast. Weather courtesy of forecast.io.

Closest aviation weather report (METAR) to Tailwinds Airport

Closest report is Witham Field, 12.1 nm (22.5 km) N. Retrieved 2019/10/16 03:35 UTC (0 seconds ago):

KSUA 160335Z AUTO 14004KT 10SM CLR 24/20 A3001 RMK AO2

Closest aviation forecast (TAF) to Tailwinds Airport

Closest forecast is Witham Field, 12.1 nm (22.5 km) N. Retrieved 2019-10-16 00:24 UTC (3 hours ago):

TAF KSUA 152322Z 1600/1624 12005KT P6SM SCT200 FM161500 20010KT P6SM SCT035 BKN250 FM161800 22012KT P6SM BKN040 BKN080